Time;durP1;ratioP1;P1;durP2;ratioP2;P2;SDS_P1;SDS_P2;PMS_P1;PMS_P2;Temp;Humidity;BMP_temperature;BMP_pressure;BME280_temperature;BME280_humidity;BME280_pressure;Samples;Min_cycle;Max_cycle;Signal;HPM_P1;HPM_P2
2023/06/10 00:00:21;;;;;;;5.13;3.78;;;18.30;94.80;;;;;;4993280;28;20057;-52
2023/06/10 00:02:46;;;;;;;7.63;4.03;;;18.20;94.70;;;;;;4991886;28;20046;-50
2023/06/10 00:05:13;;;;;;;8.40;4.47;;;18.20;94.90;;;;;;5042120;23;20176;-54
2023/06/10 00:07:39;;;;;;;7.72;3.80;;;18.10;94.70;;;;;;5031530;28;20215;-54
2023/06/10 00:10:08;;;;;;;5.43;3.45;;;18.10;94.70;;;;;;5033117;28;20124;-55
2023/06/10 00:12:37;;;;;;;5.95;3.78;;;18.00;94.40;;;;;;5031893;28;20448;-52
2023/06/10 00:15:07;;;;;;;8.45;4.43;;;18.00;94.70;;;;;;5034348;28;20075;-52
2023/06/10 00:17:32;;;;;;;5.28;3.53;;;18.00;94.80;;;;;;5041860;28;20048;-55
2023/06/10 00:19:58;;;;;;;6.78;3.97;;;18.00;94.70;;;;;;5056715;28;20402;-55
2023/06/10 00:22:29;;;;;;;6.20;3.88;;;17.90;94.80;;;;;;5046394;28;20038;-56
2023/06/10 00:24:56;;;;;;;8.60;3.97;;;17.90;95.00;;;;;;5036780;28;20474;-53
2023/06/10 00:27:21;;;;;;;6.65;3.67;;;17.80;95.20;;;;;;5036469;28;20088;-53
2023/06/10 00:29:47;;;;;;;7.80;4.22;;;17.80;95.50;;;;;;5037665;28;20037;-55
2023/06/10 00:32:13;;;;;;;4.45;3.90;;;17.70;95.50;;;;;;5036932;28;20084;-55
2023/06/10 00:34:38;;;;;;;6.80;4.00;;;17.70;96.00;;;;;;5036600;28;20061;-54
2023/06/10 00:37:04;;;;;;;5.90;4.07;;;17.60;96.00;;;;;;5040721;28;20483;-51
2023/06/10 00:39:30;;;;;;;5.32;4.03;;;17.60;96.20;;;;;;5037652;28;20044;-55
2023/06/10 00:41:55;;;;;;;9.95;4.13;;;17.60;96.50;;;;;;5035692;28;20037;-54
2023/06/10 00:44:21;;;;;;;8.98;4.07;;;17.50;96.70;;;;;;5031681;28;20044;-53
2023/06/10 00:46:47;;;;;;;6.93;4.40;;;17.40;97.00;;;;;;5026532;28;20065;-54
2023/06/10 00:49:12;;;;;;;6.43;4.25;;;17.40;97.60;;;;;;5030624;28;20036;-55
2023/06/10 00:51:39;;;;;;;6.68;4.68;;;17.40;97.70;;;;;;5029921;28;20033;-52
2023/06/10 00:54:05;;;;;;;7.10;3.90;;;17.30;98.10;;;;;;5028875;28;20033;-54
2023/06/10 00:56:34;;;;;;;7.72;4.43;;;17.30;98.50;;;;;;5026110;28;20439;-51
2023/06/10 00:59:00;;;;;;;7.13;3.85;;;17.20;98.80;;;;;;5023024;28;20041;-53
2023/06/10 01:01:26;;;;;;;10.88;4.68;;;17.30;99.40;;;;;;5017941;28;20052;-53
2023/06/10 01:03:52;;;;;;;5.68;4.20;;;17.20;99.50;;;;;;5006660;28;20042;-56
2023/06/10 01:06:30;;;;;;;7.07;4.60;;;17.20;99.90;;;;;;5008186;28;20046;-55
2023/06/10 01:09:20;;;;;;;9.30;4.93;;;17.10;99.90;;;;;;5007167;28;20539;-55
2023/06/10 01:11:54;;;;;;;6.10;4.32;;;17.10;99.90;;;;;;4998830;28;20054;-57
2023/06/10 01:14:22;;;;;;;6.70;4.50;;;17.10;99.90;;;;;;5055927;23;20083;-45
2023/06/10 01:16:48;;;;;;;6.47;4.93;;;17.00;99.90;;;;;;5032999;28;20046;-46
2023/06/10 01:19:17;;;;;;;6.57;4.82;;;16.90;99.90;;;;;;5024545;28;20129;-45
2023/06/10 01:21:48;;;;;;;8.20;4.50;;;17.00;99.90;;;;;;5042181;28;20439;-45
2023/06/10 01:24:14;;;;;;;8.02;4.30;;;16.90;99.90;;;;;;5024412;28;20044;-45
2023/06/10 01:26:42;;;;;;;8.65;4.88;;;16.90;99.90;;;;;;5025398;28;20040;-44
2023/06/10 01:29:16;;;;;;;6.43;4.80;;;16.80;99.90;;;;;;5028345;28;20033;-47
2023/06/10 01:31:49;;;;;;;4.97;4.55;;;16.80;99.90;;;;;;5037383;28;20541;-45
2023/06/10 01:34:17;;;;;;;7.20;4.97;;;16.70;99.90;;;;;;5033891;28;20041;-45
2023/06/10 01:36:47;;;;;;;8.85;4.80;;;16.70;99.90;;;;;;5049382;23;20140;-55
2023/06/10 01:39:16;;;;;;;7.30;4.88;;;16.60;99.90;;;;;;5035288;28;20045;-57
2023/06/10 01:41:42;;;;;;;8.18;5.07;;;16.60;99.90;;;;;;5035379;28;20099;-57
2023/06/10 01:44:08;;;;;;;7.88;4.72;;;16.50;99.90;;;;;;5036234;28;20042;-54
2023/06/10 01:46:34;;;;;;;6.93;5.13;;;16.50;99.90;;;;;;5035864;28;20033;-53
2023/06/10 01:49:00;;;;;;;7.75;4.80;;;16.50;99.90;;;;;;5043417;28;20482;-54
2023/06/10 01:51:25;;;;;;;7.82;4.60;;;16.50;99.90;;;;;;5044971;28;20119;-56
2023/06/10 01:53:51;;;;;;;10.77;5.10;;;16.40;99.90;;;;;;5043099;28;20057;-54
2023/06/10 01:56:19;;;;;;;8.70;4.88;;;16.40;99.90;;;;;;5036224;28;20053;-52
2023/06/10 01:58:45;;;;;;;7.88;5.10;;;16.30;99.90;;;;;;5041568;28;20084;-51
2023/06/10 02:01:11;;;;;;;7.38;4.95;;;16.30;99.90;;;;;;5041906;28;20427;-53
2023/06/10 02:03:36;;;;;;;7.00;4.63;;;16.20;99.90;;;;;;5033140;28;20087;-55
2023/06/10 02:06:02;;;;;;;11.27;5.38;;;16.20;99.90;;;;;;5024342;28;20045;-51
2023/06/10 02:08:28;;;;;;;8.05;5.03;;;16.10;99.90;;;;;;5038457;28;20120;-54
2023/06/10 02:10:53;;;;;;;9.02;5.20;;;16.10;99.90;;;;;;5041002;28;20042;-55
2023/06/10 02:13:19;;;;;;;10.10;5.53;;;16.10;99.90;;;;;;5040464;28;20033;-52
2023/06/10 02:15:45;;;;;;;8.32;5.30;;;16.00;99.90;;;;;;5036437;28;20041;-53
2023/06/10 02:18:11;;;;;;;11.07;5.60;;;16.00;99.90;;;;;;5040846;28;20117;-52
2023/06/10 02:20:38;;;;;;;9.32;5.60;;;16.00;99.90;;;;;;5039703;28;20060;-51
2023/06/10 02:23:04;;;;;;;10.15;5.25;;;15.90;99.90;;;;;;5037713;28;20041;-53
2023/06/10 02:25:30;;;;;;;8.40;5.35;;;15.90;99.90;;;;;;5044259;28;20087;-51
2023/06/10 02:27:55;;;;;;;12.30;5.75;;;15.80;99.90;;;;;;5040269;28;20067;-52
2023/06/10 02:30:21;;;;;;;9.40;6.20;;;15.80;99.90;;;;;;5032379;28;20065;-53
2023/06/10 02:32:47;;;;;;;10.18;6.00;;;15.80;99.90;;;;;;5033965;28;20060;-54
2023/06/10 02:35:17;;;;;;;9.18;5.20;;;15.80;99.90;;;;;;5031705;28;20410;-51
2023/06/10 02:37:43;;;;;;;8.40;5.47;;;15.70;99.90;;;;;;5037835;28;20056;-54
2023/06/10 02:40:10;;;;;;;10.98;5.55;;;15.60;99.90;;;;;;5062684;28;20048;-53
2023/06/10 02:42:36;;;;;;;7.60;5.77;;;15.60;99.90;;;;;;5043428;28;20053;-56
2023/06/10 02:45:02;;;;;;;12.18;5.63;;;15.60;99.90;;;;;;5042855;28;20089;-54
2023/06/10 02:47:28;;;;;;;9.23;5.60;;;15.50;99.90;;;;;;5041094;28;20045;-53
2023/06/10 02:49:53;;;;;;;10.82;5.68;;;15.50;99.90;;;;;;5042461;28;20049;-54
2023/06/10 02:52:20;;;;;;;10.98;6.38;;;15.50;99.90;;;;;;5040648;28;20042;-55
2023/06/10 02:54:46;;;;;;;8.32;5.97;;;15.40;99.90;;;;;;5031852;28;20056;-56
2023/06/10 02:57:11;;;;;;;10.23;5.57;;;15.40;99.90;;;;;;5032117;28;20037;-55
2023/06/10 02:59:37;;;;;;;8.32;5.78;;;15.40;99.90;;;;;;5032088;28;20034;-54
2023/06/10 03:02:03;;;;;;;9.30;5.65;;;15.30;99.90;;;;;;5032445;28;20060;-52
2023/06/10 03:04:30;;;;;;;9.13;5.53;;;15.30;99.90;;;;;;5032303;28;20041;-56
2023/06/10 03:06:56;;;;;;;10.43;5.80;;;15.30;99.90;;;;;;5032500;28;20046;-56
2023/06/10 03:09:21;;;;;;;7.45;5.82;;;15.30;99.90;;;;;;5029089;28;20475;-57
2023/06/10 03:11:47;;;;;;;10.98;5.70;;;15.30;99.90;;;;;;5030710;28;20060;-54
2023/06/10 03:14:12;;;;;;;9.65;6.00;;;15.30;99.90;;;;;;5032529;28;20360;-54
2023/06/10 03:16:42;;;;;;;9.70;6.13;;;15.30;99.90;;;;;;5031554;28;20065;-55
2023/06/10 03:19:08;;;;;;;8.05;5.75;;;15.30;99.90;;;;;;5028655;28;20056;-52
2023/06/10 03:21:34;;;;;;;9.77;5.97;;;15.30;99.90;;;;;;5030207;28;20037;-54
2023/06/10 03:24:00;;;;;;;11.18;5.88;;;15.30;99.90;;;;;;5031597;28;20041;-56
2023/06/10 03:26:27;;;;;;;10.55;5.95;;;15.30;99.90;;;;;;5027949;28;20094;-53
2023/06/10 03:28:53;;;;;;;9.80;5.50;;;15.20;99.90;;;;;;5048348;28;20497;-51
2023/06/10 03:31:18;;;;;;;10.63;6.05;;;15.20;99.90;;;;;;5032907;28;20118;-52
2023/06/10 03:33:44;;;;;;;9.52;5.78;;;15.20;99.90;;;;;;5035889;28;20049;-54
2023/06/10 03:36:10;;;;;;;9.68;6.25;;;15.20;99.90;;;;;;5036178;28;20061;-55
2023/06/10 03:38:36;;;;;;;11.02;5.72;;;15.10;99.90;;;;;;5035679;28;20052;-55
2023/06/10 03:41:02;;;;;;;8.27;5.57;;;15.20;99.90;;;;;;5042533;28;20088;-55
2023/06/10 03:43:28;;;;;;;10.82;5.80;;;15.20;99.90;;;;;;5050163;28;20033;-56
2023/06/10 03:45:53;;;;;;;8.98;5.95;;;15.10;99.90;;;;;;5038803;28;20128;-51
2023/06/10 03:48:19;;;;;;;8.23;5.50;;;15.10;99.90;;;;;;5038800;28;20112;-55
2023/06/10 03:50:47;;;;;;;9.02;5.65;;;15.10;99.90;;;;;;5033018;28;20046;-55
2023/06/10 03:53:13;;;;;;;10.18;6.25;;;15.10;99.90;;;;;;5038428;28;20056;-56
2023/06/10 03:55:38;;;;;;;9.52;5.95;;;15.10;99.90;;;;;;5039282;28;20395;-50
2023/06/10 03:58:04;;;;;;;9.00;6.18;;;15.10;99.90;;;;;;5049317;28;20052;-55
2023/06/10 04:00:30;;;;;;;8.80;6.22;;;15.10;99.90;;;;;;5037230;28;20125;-56
2023/06/10 04:02:57;;;;;;;9.00;5.65;;;15.10;99.90;;;;;;5035351;28;20136;-51
2023/06/10 04:05:23;;;;;;;6.40;5.03;;;15.10;99.90;;;;;;5033234;28;20055;-51
2023/06/10 04:07:49;;;;;;;9.60;5.40;;;15.20;99.90;;;;;;5034622;28;20037;-52
2023/06/10 04:10:15;;;;;;;8.23;6.05;;;15.20;99.90;;;;;;5036053;28;20406;-53
2023/06/10 04:12:41;;;;;;;10.90;5.95;;;15.20;99.90;;;;;;5036222;28;20046;-53
2023/06/10 04:15:07;;;;;;;9.50;5.82;;;15.20;99.90;;;;;;5037379;28;20042;-52
2023/06/10 04:17:33;;;;;;;9.30;6.05;;;15.20;99.90;;;;;;5037476;28;20757;-54
2023/06/10 04:20:00;;;;;;;8.75;5.43;;;15.20;99.90;;;;;;5047199;28;20041;-52
2023/06/10 04:22:26;;;;;;;9.13;5.78;;;15.20;99.90;;;;;;5043938;28;20064;-55
2023/06/10 04:24:52;;;;;;;10.80;5.53;;;15.30;99.90;;;;;;5038343;28;20052;-55
2023/06/10 04:27:17;;;;;;;9.13;5.97;;;15.30;99.90;;;;;;5041168;28;20038;-54
2023/06/10 04:29:43;;;;;;;6.95;5.68;;;15.40;99.90;;;;;;5035195;28;20112;-56
2023/06/10 04:32:08;;;;;;;11.80;5.75;;;15.50;99.90;;;;;;5030113;28;20029;-53
2023/06/10 04:34:34;;;;;;;9.32;5.50;;;15.80;99.90;;;;;;5033498;28;20045;-54
2023/06/10 04:37:00;;;;;;;7.43;5.47;;;16.80;99.90;;;;;;5033845;28;20049;-56
2023/06/10 04:39:26;;;;;;;9.23;5.78;;;18.30;99.90;;;;;;5026295;28;20064;-57
2023/06/10 04:41:51;;;;;;;9.50;5.32;;;18.50;99.90;;;;;;5030061;28;20490;-52
2023/06/10 04:44:18;;;;;;;8.75;5.55;;;19.60;99.90;;;;;;5049087;28;20124;-54
2023/06/10 04:46:44;;;;;;;7.68;4.93;;;19.60;99.90;;;;;;5036393;28;20076;-53
2023/06/10 04:49:09;;;;;;;9.68;5.38;;;20.40;99.90;;;;;;5039539;28;20517;-54
2023/06/10 04:51:35;;;;;;;8.57;5.28;;;20.80;99.90;;;;;;5028496;28;20049;-53
2023/06/10 04:54:04;;;;;;;10.93;5.00;;;21.50;99.90;;;;;;5026157;28;20090;-52
2023/06/10 04:56:30;;;;;;;9.27;5.25;;;21.50;99.90;;;;;;5025667;28;20496;-55
2023/06/10 04:58:59;;;;;;;10.23;4.85;;;21.80;99.90;;;;;;5026641;28;20119;-54
2023/06/10 05:01:25;;;;;;;8.85;5.13;;;22.00;99.90;;;;;;5029739;28;20184;-56
2023/06/10 05:03:51;;;;;;;7.78;4.93;;;22.20;99.90;;;;;;5028218;28;20128;-56
2023/06/10 05:06:17;;;;;;;9.65;5.13;;;21.80;99.90;;;;;;5037797;28;20037;-56
2023/06/10 05:08:42;;;;;;;7.30;4.60;;;21.80;99.90;;;;;;5030988;28;20037;-56
2023/06/10 05:11:08;;;;;;;6.45;4.90;;;22.20;99.90;;;;;;5029648;28;20096;-56
2023/06/10 05:13:34;;;;;;;8.35;4.85;;;22.00;99.90;;;;;;5032497;28;20171;-52
2023/06/10 05:15:59;;;;;;;8.43;4.78;;;21.90;99.90;;;;;;5057951;23;20049;-45
2023/06/10 05:18:25;;;;;;;7.32;4.85;;;22.40;99.90;;;;;;5023281;28;20060;-46
2023/06/10 05:20:51;;;;;;;9.05;5.38;;;22.20;99.90;;;;;;5017918;28;20037;-46
2023/06/10 05:23:16;;;;;;;10.57;5.03;;;22.20;99.90;;;;;;5019326;28;20403;-48
2023/06/10 05:25:42;;;;;;;7.05;5.18;;;23.10;99.90;;;;;;5022917;28;20042;-45
2023/06/10 05:28:09;;;;;;;9.32;4.88;;;23.50;99.90;;;;;;5023586;28;20399;-43
2023/06/10 05:30:36;;;;;;;8.70;4.85;;;23.70;99.90;;;;;;5023684;28;20924;-44
2023/06/10 05:33:02;;;;;;;9.05;4.57;;;24.00;99.90;;;;;;5021541;28;20090;-44
2023/06/10 05:35:28;;;;;;;7.72;5.22;;;24.00;99.90;;;;;;5024215;28;20124;-43
2023/06/10 05:37:53;;;;;;;7.85;5.15;;;23.60;99.90;;;;;;5026756;28;20501;-45
2023/06/10 05:40:19;;;;;;;7.10;5.28;;;23.50;99.90;;;;;;5028389;28;20037;-43
2023/06/10 05:42:45;;;;;;;8.90;5.22;;;23.40;99.90;;;;;;5026328;28;20049;-43
2023/06/10 05:45:11;;;;;;;7.97;5.13;;;23.40;99.90;;;;;;5038910;22;20100;-55
2023/06/10 05:47:36;;;;;;;9.80;5.25;;;23.70;99.90;;;;;;5007098;28;20181;-53
2023/06/10 05:50:02;;;;;;;6.88;4.80;;;23.90;99.90;;;;;;5009909;28;20038;-56
2023/06/10 05:52:28;;;;;;;6.95;4.75;;;24.10;99.90;;;;;;5015769;28;20050;-55
2023/06/10 05:54:54;;;;;;;9.05;4.80;;;24.00;99.90;;;;;;5020055;28;20045;-55
2023/06/10 05:57:20;;;;;;;6.88;4.47;;;24.60;99.90;;;;;;5021335;28;20073;-54
2023/06/10 05:59:45;;;;;;;7.38;4.80;;;24.70;99.90;;;;;;5019240;28;20045;-55
2023/06/10 06:02:11;;;;;;;9.57;4.45;;;25.00;99.70;;;;;;5015457;28;20519;-56
2023/06/10 06:04:36;;;;;;;8.70;4.70;;;25.00;99.20;;;;;;5010583;28;20042;-55
2023/06/10 06:07:03;;;;;;;8.35;4.53;;;25.30;99.30;;;;;;5011736;28;20116;-54
2023/06/10 06:09:29;;;;;;;7.63;5.38;;;24.90;98.70;;;;;;5009732;28;20038;-53
2023/06/10 06:11:54;;;;;;;6.75;4.28;;;24.70;99.10;;;;;;5009441;28;20045;-53
2023/06/10 06:14:20;;;;;;;10.32;4.22;;;24.90;98.50;;;;;;5007681;28;20041;-53
2023/06/10 06:16:46;;;;;;;7.82;4.45;;;24.40;98.50;;;;;;5009248;28;20137;-54
2023/06/10 06:19:11;;;;;;;10.65;4.72;;;24.30;99.30;;;;;;5007759;28;20047;-53
2023/06/10 06:21:37;;;;;;;7.78;4.60;;;24.10;99.20;;;;;;5038876;28;20045;-55
2023/06/10 06:24:03;;;;;;;8.68;4.30;;;24.50;99.80;;;;;;5020940;28;20043;-54
2023/06/10 06:26:28;;;;;;;8.32;4.47;;;24.60;99.00;;;;;;5007784;28;20042;-54
2023/06/10 06:28:54;;;;;;;6.53;4.35;;;24.70;98.70;;;;;;5020239;28;20055;-54
2023/06/10 06:31:19;;;;;;;9.10;4.22;;;25.00;98.50;;;;;;5022073;28;20517;-51
2023/06/10 06:33:45;;;;;;;9.50;4.80;;;24.20;98.00;;;;;;5039715;28;20048;-54
2023/06/10 06:36:10;;;;;;;10.88;4.40;;;24.30;99.00;;;;;;5039843;28;20119;-56
2023/06/10 06:38:36;;;;;;;6.65;4.65;;;24.40;98.70;;;;;;5023959;28;20050;-52
2023/06/10 06:41:03;;;;;;;6.05;4.35;;;24.80;98.20;;;;;;5017650;28;20050;-54
2023/06/10 06:43:30;;;;;;;7.13;4.28;;;24.70;98.30;;;;;;5005265;28;20078;-54
2023/06/10 06:45:57;;;;;;;8.07;4.47;;;24.80;98.20;;;;;;5003520;28;20105;-52
2023/06/10 06:48:23;;;;;;;8.15;4.35;;;24.80;98.10;;;;;;5014482;28;20053;-51
2023/06/10 06:50:48;;;;;;;9.93;4.45;;;25.00;97.90;;;;;;5032939;28;20501;-54
2023/06/10 06:53:14;;;;;;;7.53;4.13;;;25.10;98.20;;;;;;5010547;28;20042;-53
2023/06/10 06:55:39;;;;;;;7.72;4.30;;;25.30;97.60;;;;;;5009612;28;20048;-53
2023/06/10 06:58:05;;;;;;;7.75;4.43;;;25.20;97.40;;;;;;5011310;28;20053;-51
2023/06/10 07:00:31;;;;;;;7.32;4.50;;;25.70;97.50;;;;;;5008437;28;20129;-55
2023/06/10 07:02:57;;;;;;;9.00;4.03;;;25.40;96.90;;;;;;5012038;28;20042;-54
2023/06/10 07:05:23;;;;;;;4.95;4.05;;;25.50;97.40;;;;;;5012295;28;20537;-54
2023/06/10 07:07:54;;;;;;;6.17;4.10;;;26.30;97.10;;;;;;5011313;28;20112;-53
2023/06/10 07:10:23;;;;;;;8.13;4.38;;;26.60;96.80;;;;;;5009549;28;20056;-51
2023/06/10 07:12:49;;;;;;;7.97;4.40;;;26.30;96.10;;;;;;5013725;28;20046;-52
2023/06/10 07:15:14;;;;;;;7.07;4.20;;;26.00;95.80;;;;;;5013668;28;20041;-53
2023/06/10 07:17:40;;;;;;;6.93;4.20;;;26.00;95.80;;;;;;5011918;28;21894;-56
2023/06/10 07:20:06;;;;;;;7.80;4.38;;;26.00;96.20;;;;;;5008334;28;20029;-51
2023/06/10 07:22:32;;;;;;;10.07;4.28;;;25.90;96.60;;;;;;5006796;28;20041;-53
2023/06/10 07:24:58;;;;;;;7.75;4.03;;;25.90;96.70;;;;;;5009422;28;20049;-51
2023/06/10 07:27:23;;;;;;;5.82;3.97;;;26.00;96.30;;;;;;5012159;28;20037;-52
2023/06/10 07:29:50;;;;;;;6.13;4.22;;;25.80;96.30;;;;;;5010994;28;21889;-57
2023/06/10 07:32:16;;;;;;;7.35;4.43;;;25.20;96.80;;;;;;5007360;28;20128;-53
2023/06/10 07:34:41;;;;;;;10.25;3.97;;;25.20;97.40;;;;;;5003230;28;20767;-52
2023/06/10 07:37:07;;;;;;;6.60;3.95;;;24.60;97.30;;;;;;5012832;28;20037;-55
2023/06/10 07:39:32;;;;;;;9.88;4.63;;;24.60;97.50;;;;;;5021191;28;20124;-54
2023/06/10 07:41:58;;;;;;;10.57;4.25;;;24.60;98.00;;;;;;5017667;28;20042;-54
2023/06/10 07:44:24;;;;;;;8.20;4.43;;;24.20;98.50;;;;;;5007859;28;20045;-52
2023/06/10 07:46:49;;;;;;;7.07;4.03;;;23.70;98.90;;;;;;5011602;28;20510;-54
2023/06/10 07:49:15;;;;;;;7.47;4.10;;;23.10;98.90;;;;;;5010189;28;20407;-53
2023/06/10 07:51:41;;;;;;;7.03;4.25;;;23.30;99.50;;;;;;5014357;28;20041;-51
2023/06/10 07:54:06;;;;;;;7.47;4.07;;;23.10;99.40;;;;;;5011349;28;20034;-52
2023/06/10 07:56:32;;;;;;;6.22;4.15;;;23.10;99.90;;;;;;5003527;28;20050;-52
2023/06/10 07:58:58;;;;;;;8.25;4.38;;;22.80;99.90;;;;;;5015867;28;20049;-53
2023/06/10 08:01:24;;;;;;;8.60;4.25;;;23.00;99.90;;;;;;5012936;28;20044;-53
2023/06/10 08:03:50;;;;;;;6.20;4.15;;;23.10;99.80;;;;;;5001734;28;20078;-52
2023/06/10 08:06:17;;;;;;;6.10;4.07;;;23.30;99.90;;;;;;5013282;28;20089;-53
2023/06/10 08:08:43;;;;;;;8.43;4.38;;;23.30;99.90;;;;;;5011296;28;20430;-53
2023/06/10 08:11:13;;;;;;;6.47;4.20;;;23.40;99.90;;;;;;5036982;22;21682;-54
2023/06/10 08:13:39;;;;;;;7.07;4.10;;;23.40;99.90;;;;;;5027955;28;20437;-55
2023/06/10 08:16:05;;;;;;;8.93;4.75;;;23.60;99.90;;;;;;5026250;28;20045;-55
2023/06/10 08:18:31;;;;;;;6.13;3.97;;;23.50;99.90;;;;;;5027625;28;20041;-54
2023/06/10 08:20:57;;;;;;;6.13;4.05;;;23.60;99.90;;;;;;5024544;28;20514;-55
2023/06/10 08:23:24;;;;;;;9.27;3.83;;;23.70;99.70;;;;;;5056405;22;20053;-48
2023/06/10 08:25:50;;;;;;;5.22;3.95;;;23.80;99.60;;;;;;5025474;28;20053;-43
2023/06/10 08:28:16;;;;;;;6.45;3.60;;;23.90;99.80;;;;;;5030737;28;20053;-43
2023/06/10 08:30:42;;;;;;;7.10;4.28;;;23.70;99.80;;;;;;5027754;28;20033;-43
2023/06/10 08:33:07;;;;;;;6.65;4.03;;;23.50;99.90;;;;;;5030629;28;20044;-43
2023/06/10 08:35:33;;;;;;;8.02;4.05;;;23.90;99.90;;;;;;5029592;28;20049;-44
2023/06/10 08:37:59;;;;;;;6.32;4.18;;;24.10;99.70;;;;;;5031458;28;20096;-43
2023/06/10 08:40:24;;;;;;;8.20;4.80;;;24.00;99.90;;;;;;5018399;28;20112;-43
2023/06/10 08:43:05;;;;;;;6.95;4.00;;;24.00;99.70;;;;;;5035245;28;20203;-42
2023/06/10 08:45:35;;;;;;;7.13;4.00;;;24.20;99.90;;;;;;5030275;28;20076;-44
2023/06/10 08:48:06;;;;;;;6.07;3.72;;;24.20;99.00;;;;;;5030403;28;20089;-43
2023/06/10 08:50:37;;;;;;;7.20;4.18;;;24.30;99.00;;;;;;5029885;28;20053;-44
2023/06/10 08:53:05;;;;;;;7.93;3.78;;;24.50;99.60;;;;;;5026464;28;20049;-43
2023/06/10 08:55:36;;;;;;;8.35;3.60;;;24.40;99.00;;;;;;5031207;28;20186;-43
2023/06/10 08:58:02;;;;;;;6.85;3.70;;;24.40;99.00;;;;;;5025532;28;20379;-43
2023/06/10 09:00:29;;;;;;;10.45;4.28;;;24.60;99.60;;;;;;5031108;28;20141;-44
2023/06/10 09:02:59;;;;;;;6.78;3.72;;;24.80;98.80;;;;;;5029827;28;20046;-45
2023/06/10 09:05:27;;;;;;;8.40;3.75;;;24.80;98.30;;;;;;5030816;28;20083;-45
2023/06/10 09:07:53;;;;;;;6.75;3.97;;;24.80;98.10;;;;;;5031411;28;20087;-44
2023/06/10 09:10:22;;;;;;;6.43;3.70;;;24.90;98.00;;;;;;5032600;28;20050;-44
2023/06/10 09:12:47;;;;;;;6.13;3.42;;;25.00;97.30;;;;;;5030697;28;20734;-43
2023/06/10 09:15:14;;;;;;;8.05;3.72;;;25.00;96.70;;;;;;5029776;28;20037;-44
2023/06/10 09:17:40;;;;;;;5.50;3.33;;;25.10;95.90;;;;;;5033484;28;20048;-44
2023/06/10 09:20:07;;;;;;;5.72;3.85;;;25.30;95.60;;;;;;5035198;28;20045;-43
2023/06/10 09:22:33;;;;;;;;;;;25.30;95.80;;;;;;5029672;28;20049;-44
2023/06/10 09:25:05;;;;;;;6.72;4.20;;;25.40;95.00;;;;;;5011706;28;19921;-46
2023/06/10 09:27:34;;;;;;;4.93;4.00;;;25.60;96.20;;;;;;5019844;28;20056;-45
2023/06/10 09:30:00;;;;;;;5.32;3.88;;;25.60;95.60;;;;;;5025732;28;20091;-44
2023/06/10 09:32:27;;;;;;;9.43;4.15;;;25.80;95.20;;;;;;5022449;28;20038;-44
2023/06/10 09:34:52;;;;;;;5.88;4.10;;;26.00;94.80;;;;;;5016895;28;20038;-45
2023/06/10 09:37:22;;;;;;;5.43;4.22;;;25.90;94.70;;;;;;5021801;28;20048;-45
2023/06/10 09:40:05;;;;;;;4.88;3.78;;;26.00;94.30;;;;;;5029067;28;20048;-44
2023/06/10 09:42:35;;;;;;;6.50;4.57;;;26.00;94.10;;;;;;5029162;28;20136;-44
2023/06/10 09:45:02;;;;;;;5.88;4.00;;;25.90;93.80;;;;;;5016287;28;20492;-46
2023/06/10 09:47:28;;;;;;;5.97;4.10;;;26.00;93.50;;;;;;5013341;28;20520;-44
2023/06/10 09:49:54;;;;;;;5.45;4.10;;;26.00;93.00;;;;;;5013847;28;20065;-45
2023/06/10 09:52:23;;;;;;;14.80;7.20;;;26.00;92.90;;;;;;5019172;28;20076;-44
2023/06/10 09:54:53;;;;;;;5.65;3.92;;;26.00;92.60;;;;;;5005106;28;20467;-43
2023/06/10 09:57:22;;;;;;;4.90;4.35;;;26.10;92.20;;;;;;5004728;28;20061;-43
2023/06/10 09:59:52;;;;;;;8.02;5.05;;;26.00;92.50;;;;;;5005465;28;20383;-43
2023/06/10 10:02:18;;;;;;;8.38;4.72;;;26.10;93.00;;;;;;5034039;28;20046;-44
2023/06/10 10:04:46;;;;;;;5.13;4.35;;;26.30;92.80;;;;;;4996503;28;20046;-43
2023/06/10 10:07:12;;;;;;;5.28;4.55;;;26.30;92.80;;;;;;4995783;28;20100;-43
2023/06/10 10:09:39;;;;;;;6.57;4.97;;;26.60;92.90;;;;;;5007661;28;20046;-43
2023/06/10 10:12:11;;;;;;;8.03;4.60;;;26.50;92.20;;;;;;5013611;28;20053;-44
2023/06/10 10:14:37;;;;;;;7.25;4.95;;;26.60;91.80;;;;;;5010959;28;20041;-43
2023/06/10 10:17:07;;;;;;;9.07;5.00;;;26.50;91.70;;;;;;5008982;28;20038;-43
2023/06/10 10:19:42;;;;;;;5.50;4.55;;;26.80;91.80;;;;;;5002733;28;20081;-43
2023/06/10 10:22:18;;;;;;;7.82;5.18;;;26.50;91.10;;;;;;5007259;28;20491;-43
2023/06/10 10:24:51;;;;;;;6.18;4.75;;;26.50;91.80;;;;;;5004081;28;20042;-43
2023/06/10 10:27:36;;;;;;;6.85;5.22;;;26.60;91.30;;;;;;5012790;28;20037;-43
2023/06/10 10:30:08;;;;;;;5.60;4.78;;;26.80;91.10;;;;;;5020177;28;20057;-43
2023/06/10 10:32:56;;;;;;;7.63;4.95;;;26.80;91.30;;;;;;5012382;28;20034;-44
2023/06/10 10:35:24;;;;;;;8.23;4.57;;;26.80;90.60;;;;;;5008912;28;20475;-45
2023/06/10 10:37:55;;;;;;;5.15;4.60;;;27.00;91.20;;;;;;4998014;28;20045;-44
2023/06/10 10:40:22;;;;;;;6.47;4.80;;;27.00;90.00;;;;;;5013683;28;20045;-43
2023/06/10 10:42:48;;;;;;;;;;;27.00;87.70;;;;;;5012167;28;20034;-45
2023/06/10 10:45:14;;;;;;;6.32;5.05;;;27.00;87.90;;;;;;4994557;28;19921;-44
2023/06/10 10:47:41;;;;;;;5.57;4.65;;;26.70;88.20;;;;;;5023515;28;20038;-46
2023/06/10 10:50:30;;;;;;;7.90;4.68;;;26.90;86.00;;;;;;5010719;28;20077;-43
2023/06/10 10:52:59;;;;;;;6.28;4.50;;;26.90;85.60;;;;;;5012630;28;20085;-43
2023/06/10 10:55:27;;;;;;;6.28;4.30;;;27.10;86.90;;;;;;5013158;28;20050;-44
2023/06/10 10:58:13;;;;;;;;;;;27.40;87.70;;;;;;5007978;28;20035;-44
2023/06/10 11:00:44;;;;;;;6.43;4.47;;;27.60;86.80;;;;;;5010921;28;19921;-42
2023/06/10 11:03:16;;;;;;;4.90;4.13;;;27.50;84.20;;;;;;5013158;28;20417;-46
2023/06/10 11:05:47;;;;;;;5.45;4.20;;;27.70;84.00;;;;;;5017564;28;20061;-44
2023/06/10 11:08:13;;;;;;;5.65;3.80;;;27.70;84.20;;;;;;5011641;28;20046;-43
2023/06/10 11:10:52;;;;;;;5.28;4.18;;;27.80;82.60;;;;;;5012648;28;20065;-44
2023/06/10 11:13:20;;;;;;;4.97;4.05;;;28.00;83.50;;;;;;5021265;28;20052;-43
2023/06/10 11:16:08;;;;;;;3.95;3.50;;;28.00;81.00;;;;;;5021666;28;20049;-44
2023/06/10 11:18:41;;;;;;;7.18;3.83;;;28.00;81.00;;;;;;5009130;28;20049;-44
2023/06/10 11:21:07;;;;;;;4.78;3.58;;;28.00;80.80;;;;;;5009749;28;20091;-44
2023/06/10 11:23:33;;;;;;;6.35;3.67;;;28.10;81.20;;;;;;5012997;28;20062;-43
2023/06/10 11:26:14;;;;;;;4.15;3.65;;;27.90;78.70;;;;;;5010260;28;20456;-46
2023/06/10 11:28:41;;;;;;;4.10;3.25;;;27.90;78.70;;;;;;5004830;28;20038;-44
2023/06/10 11:31:07;;;;;;;5.35;3.15;;;28.10;79.10;;;;;;5011754;28;20038;-44
2023/06/10 11:33:33;;;;;;;6.07;3.42;;;28.10;79.60;;;;;;5010726;28;20041;-43
2023/06/10 11:35:58;;;;;;;4.38;3.22;;;28.10;76.20;;;;;;5011845;28;20053;-45
2023/06/10 11:38:25;;;;;;;5.20;3.28;;;28.20;76.10;;;;;;5025809;28;20450;-44
2023/06/10 11:40:51;;;;;;;4.45;3.28;;;28.30;76.90;;;;;;5025470;28;20049;-44
2023/06/10 11:43:20;;;;;;;5.73;3.30;;;28.30;75.10;;;;;;5011700;28;20498;-45
2023/06/10 11:45:46;;;;;;;13.05;5.20;;;28.20;75.00;;;;;;5012345;28;20395;-43
2023/06/10 11:48:12;;;;;;;7.85;3.25;;;28.40;74.50;;;;;;5009705;28;20049;-44
2023/06/10 11:50:39;;;;;;;5.38;3.10;;;28.60;74.60;;;;;;5011676;28;20045;-44
2023/06/10 11:53:05;;;;;;;5.10;3.72;;;28.70;73.50;;;;;;5010399;28;20045;-44
2023/06/10 11:55:43;;;;;;;4.45;3.58;;;28.60;72.00;;;;;;5026850;28;20040;-43
2023/06/10 11:58:16;;;;;;;3.95;3.55;;;28.70;74.40;;;;;;5016402;28;20399;-44
2023/06/10 12:00:50;;;;;;;4.85;3.38;;;28.70;71.80;;;;;;5011336;28;20085;-44
2023/06/10 12:03:16;;;;;;;4.55;3.33;;;28.70;72.40;;;;;;5010365;28;20124;-43
2023/06/10 12:05:58;;;;;;;7.28;3.60;;;29.00;72.30;;;;;;5013099;28;20084;-44
2023/06/10 12:08:24;;;;;;;5.90;3.25;;;28.70;70.00;;;;;;5008562;28;20038;-43
2023/06/10 12:10:50;;;;;;;5.50;3.20;;;28.90;71.10;;;;;;5013246;28;20046;-43
2023/06/10 12:13:17;;;;;;;4.68;3.25;;;28.90;70.10;;;;;;5001451;28;20037;-44
2023/06/10 12:15:44;;;;;;;4.00;3.35;;;29.00;70.20;;;;;;5011680;28;20124;-43
2023/06/10 12:18:24;;;;;;;8.15;3.22;;;29.20;68.30;;;;;;5011843;28;20042;-45
2023/06/10 12:20:51;;;;;;;7.25;3.10;;;29.00;67.40;;;;;;5012266;28;20122;-43
2023/06/10 12:23:18;;;;;;;4.13;2.75;;;29.00;66.70;;;;;;4998981;28;20387;-44
2023/06/10 12:25:51;;;;;;;;;;;29.00;66.90;;;;;;5012155;28;20048;-45
2023/06/10 12:28:20;;;;;;;3.78;3.38;;;29.20;68.10;;;;;;5015784;28;19921;-44
2023/06/10 12:30:46;;;;;;;4.53;3.22;;;29.30;65.40;;;;;;5031983;28;20099;-44
2023/06/10 12:33:21;;;;;;;5.60;3.00;;;29.40;66.40;;;;;;5013574;28;20042;-43
2023/06/10 12:35:52;;;;;;;3.10;2.80;;;29.50;64.10;;;;;;5009380;28;20071;-44
2023/06/10 12:38:27;;;;;;;3.67;3.20;;;28.90;62.80;;;;;;5011430;28;20364;-44
2023/06/10 12:40:53;;;;;;;5.25;3.17;;;28.80;62.90;;;;;;5011323;28;20132;-43
2023/06/10 12:43:25;;;;;;;3.92;3.33;;;28.60;62.20;;;;;;5009576;28;20058;-44
2023/06/10 12:45:51;;;;;;;3.90;2.90;;;28.80;63.30;;;;;;5014651;28;20057;-44